Time;durP1;ratioP1;P1;durP2;ratioP2;P2;SDS_P1;SDS_P2;PMS_P1;PMS_P2;Temp;Humidity;BMP_temperature;BMP_pressure;BME280_temperature;BME280_humidity;BME280_pressure;Samples;Min_cycle;Max_cycle;Signal;HPM_P1;HPM_P2
2023/04/06 00:01:02;;;;;;;10.82;6.10;;;;;;;7.89;56.37;101963.50;4914180;29;20043;-48
2023/04/06 00:03:28;;;;;;;9.30;3.60;;;;;;;7.90;56.58;101953.88;4927148;29;20499;-49
2023/04/06 00:05:53;;;;;;;12.82;7.25;;;;;;;7.89;56.23;101955.66;4928273;29;20040;-48
2023/04/06 00:08:21;;;;;;;9.75;6.00;;;;;;;7.87;56.22;101946.97;4907812;29;20130;-48
2023/04/06 00:10:46;;;;;;;12.50;5.90;;;;;;;7.86;56.48;101958.34;4932225;29;20502;-49
2023/04/06 00:13:12;;;;;;;10.88;6.05;;;;;;;7.88;55.95;101945.19;4930247;29;20036;-49
2023/04/06 00:15:37;;;;;;;14.77;5.60;;;;;;;7.87;56.34;101944.34;4927616;29;20086;-49
2023/04/06 00:18:03;;;;;;;11.18;6.00;;;;;;;7.88;56.06;101948.69;4926174;29;20146;-49
2023/04/06 00:20:28;;;;;;;9.50;5.78;;;;;;;7.87;56.34;101944.34;4924379;29;20031;-49
2023/04/06 00:22:54;;;;;;;11.50;5.50;;;;;;;7.89;56.13;101945.16;4926194;29;20044;-49
2023/04/06 00:25:19;;;;;;;10.82;5.72;;;;;;;7.85;56.11;101948.75;4929672;29;20503;-49
2023/04/06 00:27:45;;;;;;;10.80;6.03;;;;;;;7.82;55.97;101946.22;4912900;29;20039;-49
2023/04/06 00:30:11;;;;;;;10.52;5.75;;;;;;;7.80;56.04;101940.16;4927642;29;20035;-48
2023/04/06 00:32:36;;;;;;;12.95;5.57;;;;;;;7.81;55.93;101944.50;4930072;29;20050;-49
2023/04/06 00:35:05;;;;;;;10.63;5.80;;;;;;;7.82;55.80;101943.59;4925542;29;20484;-49
2023/04/06 00:37:31;;;;;;;10.48;5.00;;;;;;;7.83;56.05;101941.84;4911069;29;20043;-48
2023/04/06 00:39:57;;;;;;;9.13;5.20;;;;;;;7.82;55.88;101945.38;4930260;29;20120;-48
2023/04/06 00:42:25;;;;;;;9.98;5.32;;;;;;;7.78;55.73;101941.97;4930001;29;20079;-50
2023/04/06 00:45:01;;;;;;;12.32;6.00;;;;;;;7.76;55.86;101928.06;4929286;29;20468;-49
2023/04/06 00:47:27;;;;;;;11.60;5.20;;;;;;;7.76;55.81;101930.69;4932946;29;20100;-49
2023/04/06 00:49:54;;;;;;;10.98;5.32;;;;;;;7.76;55.54;101935.91;4928010;29;20496;-49
2023/04/06 00:52:20;;;;;;;8.70;5.20;;;;;;;7.75;55.90;101934.19;4928922;29;20114;-48
2023/04/06 00:54:45;;;;;;;9.68;5.13;;;;;;;7.74;55.71;101932.47;4930564;29;20476;-49
2023/04/06 00:57:12;;;;;;;11.02;4.97;;;;;;;7.75;55.62;101921.09;4931570;29;20063;-49
2023/04/06 00:59:38;;;;;;;8.93;4.82;;;;;;;7.73;55.51;101925.50;4929031;29;20418;-49
2023/04/06 01:02:04;;;;;;;12.45;5.90;;;;;;;7.72;55.87;101923.78;4932324;29;20040;-48
2023/04/06 01:04:30;;;;;;;9.27;4.32;;;;;;;7.71;55.36;101924.69;4929323;29;20043;-49
2023/04/06 01:06:55;;;;;;;12.82;5.75;;;;;;;7.68;55.35;101917.78;4936368;29;20039;-48
2023/04/06 01:09:21;;;;;;;13.68;5.10;;;;;;;7.66;55.45;101923.94;4931850;29;20115;-48
2023/04/06 01:11:46;;;;;;;10.60;4.93;;;;;;;7.63;55.55;101917.91;4934544;29;20471;-48
2023/04/06 01:14:12;;;;;;;13.43;5.78;;;;;;;7.61;54.83;101914.47;4932497;29;20039;-50
2023/04/06 01:16:37;;;;;;;7.93;3.90;;;;;;;7.61;54.77;101917.09;4931521;29;20028;-49
2023/04/06 01:19:12;;;;;;;7.90;3.88;;;;;;;7.58;54.68;101917.16;4928324;29;20027;-49
2023/04/06 01:21:39;;;;;;;9.05;3.88;;;;;;;7.56;54.72;101918.97;4931929;29;20040;-48
2023/04/06 01:24:05;;;;;;;7.50;3.65;;;;;;;7.54;54.47;101914.66;4930122;29;20031;-49
2023/04/06 01:26:32;;;;;;;9.68;3.67;;;;;;;7.55;54.14;101919.84;4931185;29;20022;-49
2023/04/06 01:28:58;;;;;;;7.47;3.17;;;;;;;7.55;54.31;101912.00;4929201;29;20024;-48
2023/04/06 01:31:24;;;;;;;5.00;3.13;;;;;;;7.50;53.96;101913.88;4924205;29;20042;-49
2023/04/06 01:33:50;;;;;;;6.57;3.70;;;;;;;7.49;53.99;101912.16;4931738;29;20118;-48
2023/04/06 01:36:15;;;;;;;5.32;2.92;;;;;;;7.48;53.70;101916.53;4928304;29;20515;-49
2023/04/06 01:38:41;;;;;;;9.57;3.53;;;;;;;7.47;53.43;101919.22;4931285;29;20056;-49
2023/04/06 01:41:07;;;;;;;7.43;3.45;;;;;;;7.42;53.05;101927.16;4931663;29;20513;-49
2023/04/06 01:43:33;;;;;;;6.07;3.10;;;;;;;7.41;52.89;101928.06;4931902;29;20484;-49
2023/04/06 01:45:58;;;;;;;7.75;3.65;;;;;;;7.39;53.03;101926.38;4933647;29;20539;-49
2023/04/06 01:48:24;;;;;;;8.52;3.92;;;;;;;7.38;53.40;101930.78;4934229;29;20039;-48
2023/04/06 01:50:49;;;;;;;8.38;4.00;;;;;;;7.38;53.38;101928.16;4934244;29;20038;-49
2023/04/06 01:53:16;;;;;;;8.93;4.15;;;;;;;7.38;53.00;101929.91;4928724;29;20032;-48
2023/04/06 01:55:41;;;;;;;10.70;4.30;;;;;;;7.33;53.53;101933.47;4932495;29;20411;-49
2023/04/06 01:58:07;;;;;;;7.70;4.13;;;;;;;7.31;53.56;101934.44;4933837;29;20046;-48
2023/04/06 02:00:32;;;;;;;9.43;3.70;;;;;;;7.29;53.21;101934.47;4932743;29;20028;-49
2023/04/06 02:02:58;;;;;;;8.93;3.83;;;;;;;7.23;53.32;101932.00;4931609;29;20452;-49
2023/04/06 02:05:23;;;;;;;9.55;3.90;;;;;;;7.23;52.90;101933.78;4932405;29;20034;-49
2023/04/06 02:07:49;;;;;;;7.97;4.13;;;;;;;7.21;53.30;101931.19;4926866;29;20071;-49
2023/04/06 02:10:15;;;;;;;10.57;3.90;;;;;;;7.19;52.78;101927.72;4927488;29;20046;-50
2023/04/06 02:12:40;;;;;;;5.68;3.33;;;;;;;7.17;52.94;101932.16;4932681;29;20027;-48
2023/04/06 02:15:06;;;;;;;6.88;3.53;;;;;;;7.15;52.83;101931.34;4927114;29;20028;-50
2023/04/06 02:17:32;;;;;;;6.95;3.13;;;;;;;7.11;52.98;101927.91;4934324;29;20444;-48
2023/04/06 02:19:57;;;;;;;9.10;3.60;;;;;;;7.11;53.08;101932.31;4925580;29;20027;-49
2023/04/06 02:22:23;;;;;;;9.32;3.78;;;;;;;7.09;52.59;101926.25;4930693;29;20039;-49
2023/04/06 02:24:48;;;;;;;6.65;3.35;;;;;;;7.06;52.61;101924.56;4930933;29;20035;-49
2023/04/06 02:27:14;;;;;;;7.57;3.60;;;;;;;7.03;53.03;101922.03;4932774;29;20055;-49
2023/04/06 02:29:40;;;;;;;8.40;4.05;;;;;;;7.00;52.99;101922.09;4931085;29;20106;-49
2023/04/06 02:32:06;;;;;;;6.47;3.58;;;;;;;7.00;52.92;101920.34;4932012;29;20139;-49
2023/04/06 02:34:31;;;;;;;6.30;3.78;;;;;;;7.03;52.70;101923.78;4934017;29;20043;-49
2023/04/06 02:36:57;;;;;;;8.57;4.30;;;;;;;7.01;52.82;101921.19;4926015;29;20115;-48
2023/04/06 02:39:22;;;;;;;12.32;4.47;;;;;;;6.98;52.71;101916.91;4927987;29;20079;-48
2023/04/06 02:41:48;;;;;;;10.90;4.85;;;;;;;6.94;53.03;101915.25;4929477;29;20047;-50
2023/04/06 02:44:13;;;;;;;10.48;4.78;;;;;;;6.91;53.25;101915.31;4932620;29;20504;-48
2023/04/06 02:46:39;;;;;;;12.10;5.63;;;;;;;6.88;53.17;101914.53;4926052;29;20036;-48
2023/04/06 02:49:04;;;;;;;9.57;4.25;;;;;;;6.84;53.35;101919.00;4931523;29;20044;-48
2023/04/06 02:51:30;;;;;;;14.18;5.75;;;;;;;6.79;53.34;101915.59;4932845;29;20036;-49
2023/04/06 02:53:55;;;;;;;12.02;5.38;;;;;;;6.76;53.50;101924.41;4931633;29;20075;-48
2023/04/06 02:56:21;;;;;;;14.13;6.22;;;;;;;6.71;53.52;101916.66;4918908;29;20404;-48
2023/04/06 02:58:47;;;;;;;13.60;4.95;;;;;;;6.71;53.60;101929.72;4934981;29;20510;-49
2023/04/06 03:01:12;;;;;;;7.57;4.07;;;;;;;6.68;53.38;101919.34;4932874;29;20032;-48
2023/04/06 03:03:37;;;;;;;9.15;5.13;;;;;;;6.67;53.56;101915.00;4930759;29;22684;-49
2023/04/06 03:06:03;;;;;;;12.40;5.00;;;;;;;6.65;53.60;101922.00;4933874;29;20031;-48
2023/04/06 03:08:29;;;;;;;10.02;4.78;;;;;;;6.64;53.41;101915.06;4927666;29;20040;-48
2023/04/06 03:10:54;;;;;;;10.32;5.45;;;;;;;6.59;53.54;101922.13;4936584;29;20527;-49
2023/04/06 03:13:20;;;;;;;10.63;4.80;;;;;;;6.56;53.69;101923.06;4927690;29;20051;-47
2023/04/06 03:15:46;;;;;;;10.18;5.55;;;;;;;6.52;53.76;101923.19;4934963;29;20039;-49
2023/04/06 03:18:11;;;;;;;9.95;4.88;;;;;;;6.47;53.88;101925.03;4933639;29;20094;-49
2023/04/06 03:20:37;;;;;;;9.88;4.57;;;;;;;6.40;53.50;101919.94;4929535;29;20067;-49
2023/04/06 03:23:03;;;;;;;9.70;4.10;;;;;;;6.35;54.00;101927.00;4926468;29;20091;-49
2023/04/06 03:25:29;;;;;;;11.90;5.65;;;;;;;6.33;53.93;101923.56;4929263;29;20043;-48
2023/04/06 03:27:55;;;;;;;12.55;5.10;;;;;;;6.31;53.72;101920.13;4928828;29;20035;-48
2023/04/06 03:30:21;;;;;;;13.23;5.32;;;;;;;6.29;53.58;101927.13;4931931;29;20038;-48
2023/04/06 03:32:46;;;;;;;7.05;3.60;;;;;;;6.25;53.88;101925.50;4927313;29;20032;-50
2023/04/06 03:35:13;;;;;;;10.73;4.70;;;;;;;6.22;53.82;101925.56;4924684;29;20038;-49
2023/04/06 03:37:38;;;;;;;10.25;4.57;;;;;;;6.21;53.74;101934.28;4929549;29;20127;-48
2023/04/06 03:40:05;;;;;;;24.10;10.57;;;;;;;6.22;53.70;101936.84;4929505;29;20032;-48
2023/04/06 03:42:32;;;;;;;14.13;8.00;;;;;;;6.25;53.45;101936.78;4928250;29;20038;-47
2023/04/06 03:44:58;;;;;;;11.23;4.45;;;;;;;6.29;53.35;101929.75;4932395;29;20047;-49
2023/04/06 03:47:24;;;;;;;11.02;4.55;;;;;;;6.25;53.30;101938.56;4931456;29;20044;-49
2023/04/06 03:49:50;;;;;;;11.23;4.78;;;;;;;6.23;53.17;101938.56;4933446;29;20028;-49
2023/04/06 03:52:15;;;;;;;10.70;4.25;;;;;;;6.25;53.54;101943.78;4926186;29;20405;-49
2023/04/06 03:54:41;;;;;;;11.90;4.75;;;;;;;6.29;53.50;101945.44;4924657;29;20036;-49
2023/04/06 03:57:06;;;;;;;29.35;8.35;;;;;;;6.31;52.94;101948.88;4926988;29;20471;-48
2023/04/06 03:59:32;;;;;;;29.98;13.15;;;;;;;6.27;53.22;101949.84;4931559;29;20032;-49
2023/04/06 04:01:57;;;;;;;11.38;6.20;;;;;;;6.21;53.12;101950.81;4931611;29;20036;-48
2023/04/06 04:04:22;;;;;;;14.88;5.55;;;;;;;6.13;53.44;101954.47;4923488;29;20032;-48
2023/04/06 04:06:48;;;;;;;10.23;4.20;;;;;;;6.12;53.42;101952.78;4929778;29;20020;-49
2023/04/06 04:09:13;;;;;;;9.77;5.85;;;;;;;6.07;53.75;101956.31;4929773;29;20032;-49
2023/04/06 04:11:39;;;;;;;11.23;5.25;;;;;;;6.02;53.85;101963.38;4932018;29;20472;-49
2023/04/06 04:14:04;;;;;;;16.38;4.88;;;;;;;6.00;53.66;101967.78;4932025;29;20535;-48
2023/04/06 04:16:30;;;;;;;10.65;5.20;;;;;;;5.97;53.82;101966.94;4930317;29;20036;-49
2023/04/06 04:18:55;;;;;;;13.43;5.18;;;;;;;5.92;53.98;101962.66;4922546;29;20508;-49
2023/04/06 04:21:21;;;;;;;10.85;5.40;;;;;;;5.93;54.12;101960.91;4929107;29;20579;-48
2023/04/06 04:23:46;;;;;;;14.77;6.28;;;;;;;5.89;54.30;101962.75;4927491;29;20094;-48
2023/04/06 04:26:12;;;;;;;11.60;5.63;;;;;;;5.85;54.38;101968.91;4931106;29;20392;-49
2023/04/06 04:28:37;;;;;;;13.85;6.43;;;;;;;5.83;54.19;101964.56;4929382;29;20032;-50
2023/04/06 04:31:02;;;;;;;13.90;6.35;;;;;;;5.80;54.43;101970.72;4930536;29;20492;-49
2023/04/06 04:33:28;;;;;;;19.67;7.45;;;;;;;5.75;54.27;101962.97;4930806;29;20432;-48
2023/04/06 04:35:53;;;;;;;13.90;6.82;;;;;;;5.73;54.41;101969.97;4924926;29;20044;-48
2023/04/06 04:38:19;;;;;;;15.45;6.35;;;;;;;5.70;54.58;101970.03;4929685;29;20032;-48
2023/04/06 04:40:45;;;;;;;17.42;7.40;;;;;;;5.70;54.42;101975.25;4930812;29;20035;-48
2023/04/06 04:43:10;;;;;;;15.75;6.95;;;;;;;5.72;54.38;101970.84;4932011;29;20393;-48
2023/04/06 04:45:35;;;;;;;17.02;7.20;;;;;;;5.69;54.47;101978.75;4923593;29;20043;-48
2023/04/06 04:48:01;;;;;;;15.00;7.47;;;;;;;5.75;54.69;101973.44;4925332;29;20369;-49
2023/04/06 04:50:26;;;;;;;16.85;8.18;;;;;;;5.79;54.57;101975.09;4927336;29;20042;-49
2023/04/06 04:52:52;;;;;;;19.30;6.68;;;;;;;5.82;54.21;101978.56;4929852;29;20027;-48
2023/04/06 04:55:17;;;;;;;15.93;6.43;;;;;;;5.84;54.23;101982.84;4930386;29;20031;-49
2023/04/06 04:57:43;;;;;;;12.40;5.40;;;;;;;5.86;54.13;101983.69;4925508;29;20040;-50
2023/04/06 05:00:09;;;;;;;11.13;5.90;;;;;;;5.90;54.08;101977.50;4932061;29;20028;-49
2023/04/06 05:02:35;;;;;;;14.57;5.40;;;;;;;5.90;54.35;101987.09;4928806;29;20487;-49
2023/04/06 05:05:00;;;;;;;19.83;7.82;;;;;;;5.91;54.14;101983.59;4925812;29;20118;-48
2023/04/06 05:07:26;;;;;;;18.25;8.07;;;;;;;5.90;54.56;101985.34;4928575;29;20419;-49
2023/04/06 05:09:52;;;;;;;18.05;7.00;;;;;;;5.90;54.50;101987.09;4926728;29;20114;-48
2023/04/06 05:12:18;;;;;;;20.83;7.53;;;;;;;5.86;54.32;101988.03;4932027;29;20066;-49
2023/04/06 05:14:44;;;;;;;18.65;8.52;;;;;;;5.83;54.72;101993.31;4928622;29;20028;-48
2023/04/06 05:17:09;;;;;;;15.70;6.72;;;;;;;5.83;54.75;101983.75;4931127;29;20102;-48
2023/04/06 05:19:35;;;;;;;18.30;7.38;;;;;;;5.86;54.56;101990.66;4921234;29;20411;-49
2023/04/06 05:22:00;;;;;;;14.40;6.97;;;;;;;5.92;54.18;101993.16;4924116;29;20035;-48
2023/04/06 05:24:26;;;;;;;10.35;4.22;;;;;;;5.94;54.43;101988.78;4928667;29;20039;-49
2023/04/06 05:26:52;;;;;;;12.18;6.05;;;;;;;5.98;54.31;101994.78;4923338;29;20036;-49
2023/04/06 05:29:19;;;;;;;12.95;5.70;;;;;;;6.00;54.42;101998.28;4927272;29;20035;-49
2023/04/06 05:31:45;;;;;;;14.55;6.10;;;;;;;6.02;54.07;101993.91;4925263;29;20036;-49
2023/04/06 05:34:10;;;;;;;13.93;6.53;;;;;;;6.04;54.10;101992.97;4929679;29;20037;-48
2023/04/06 05:36:36;;;;;;;17.80;6.15;;;;;;;6.02;54.11;101997.34;4924856;29;20043;-49
2023/04/06 05:39:01;;;;;;;11.45;5.43;;;;;;;6.03;54.22;101993.84;4925548;29;20373;-48
2023/04/06 05:41:27;;;;;;;12.30;5.47;;;;;;;6.10;54.09;101989.38;4914866;29;20039;-48
2023/04/06 05:43:52;;;;;;;10.93;5.18;;;;;;;6.14;54.02;101995.41;4925985;29;20063;-49
2023/04/06 05:46:18;;;;;;;22.67;9.15;;;;;;;6.13;54.03;101991.06;4927066;29;20255;-48
2023/04/06 05:48:44;;;;;;;22.00;10.93;;;;;;;6.14;54.29;101998.00;4929188;29;20492;-48
2023/04/06 05:51:10;;;;;;;21.25;8.57;;;;;;;6.12;54.48;101999.81;4920292;29;20031;-48
2023/04/06 05:53:35;;;;;;;16.88;8.52;;;;;;;6.16;54.60;101998.84;4920441;29;20103;-49
2023/04/06 05:56:02;;;;;;;33.03;12.63;;;;;;;6.19;54.16;102004.00;4921405;29;20432;-49
2023/04/06 05:58:27;;;;;;;21.70;10.40;;;;;;;6.19;54.59;101998.78;4925613;29;21197;-49
2023/04/06 06:01:03;;;;;;;16.95;8.55;;;;;;;6.20;54.42;102000.50;4924600;29;20610;-49
2023/04/06 06:03:29;;;;;;;17.98;7.50;;;;;;;6.22;54.69;102003.97;4929672;29;20083;-49
2023/04/06 06:06:00;;;;;;;18.98;8.48;;;;;;;6.28;54.77;102005.59;4927118;29;20034;-48
2023/04/06 06:08:25;;;;;;;19.15;9.00;;;;;;;6.27;54.90;101998.63;4931042;29;20123;-49
2023/04/06 06:10:51;;;;;;;21.42;8.95;;;;;;;6.29;54.64;102005.56;4926316;29;20031;-49
2023/04/06 06:13:16;;;;;;;19.52;8.40;;;;;;;6.33;54.62;102006.38;4931316;29;20039;-50
2023/04/06 06:15:42;;;;;;;18.45;7.82;;;;;;;6.37;54.72;102010.63;4931209;29;20032;-48
2023/04/06 06:18:07;;;;;;;18.85;7.70;;;;;;;6.40;55.01;102011.44;4924097;29;20505;-48
2023/04/06 06:20:32;;;;;;;21.40;8.98;;;;;;;6.44;54.80;102011.38;4925791;29;20575;-48
2023/04/06 06:22:58;;;;;;;12.38;5.97;;;;;;;6.53;54.77;102019.06;4917355;29;20102;-50
2023/04/06 06:25:24;;;;;;;18.88;7.93;;;;;;;6.58;54.53;102014.56;4929960;29;20094;-48
2023/04/06 06:27:49;;;;;;;17.52;9.18;;;;;;;6.65;54.48;102013.56;4922824;29;20034;-49
2023/04/06 06:30:15;;;;;;;18.17;8.18;;;;;;;6.69;54.71;102010.00;4927222;29;20412;-49
2023/04/06 06:32:40;;;;;;;17.05;7.25;;;;;;;6.72;54.58;102003.81;4931403;29;20028;-49
2023/04/06 06:35:06;;;;;;;17.73;8.73;;;;;;;6.76;54.23;102021.19;4926399;29;20043;-49
2023/04/06 06:37:31;;;;;;;12.98;6.78;;;;;;;6.78;54.81;102018.53;4926563;29;20080;-49
2023/04/06 06:39:57;;;;;;;14.68;7.78;;;;;;;6.82;54.36;102014.97;4923339;29;20106;-49
2023/04/06 06:42:22;;;;;;;14.85;6.82;;;;;;;6.84;54.48;102011.41;4926539;29;20105;-50
2023/04/06 06:44:48;;;;;;;20.38;7.28;;;;;;;6.90;54.21;102015.63;4930527;29;20039;-48
2023/04/06 06:47:13;;;;;;;12.73;6.90;;;;;;;6.94;53.95;102019.91;4933314;29;20495;-49
2023/04/06 06:49:39;;;;;;;20.15;8.05;;;;;;;7.00;54.29;102026.78;4933915;29;20507;-50
2023/04/06 06:52:04;;;;;;;10.88;5.20;;;;;;;7.04;53.82;102025.81;4922362;29;20040;-49
2023/04/06 06:54:30;;;;;;;14.45;5.90;;;;;;;7.06;53.87;102021.41;4922663;29;20032;-49
2023/04/06 06:56:55;;;;;;;16.42;7.28;;;;;;;7.10;54.06;102025.69;4930784;29;20023;-49
2023/04/06 06:59:21;;;;;;;17.50;7.15;;;;;;;7.12;53.94;102023.03;4904770;29;20036;-48
2023/04/06 07:01:46;;;;;;;14.23;5.80;;;;;;;7.17;53.84;102026.41;4906264;29;20031;-49
2023/04/06 07:04:12;;;;;;;12.60;6.25;;;;;;;7.17;53.90;102019.41;4920235;29;20035;-48
2023/04/06 07:06:37;;;;;;;13.13;6.18;;;;;;;7.21;53.60;102021.97;4929834;29;20428;-49
2023/04/06 07:09:03;;;;;;;13.07;5.80;;;;;;;7.23;53.63;102020.16;4932805;29;20140;-47
2023/04/06 07:11:30;;;;;;;11.48;6.75;;;;;;;7.25;53.72;102019.22;4926088;29;20110;-50
2023/04/06 07:13:55;;;;;;;14.98;7.03;;;;;;;7.29;53.66;102026.13;4928564;29;20415;-49
2023/04/06 07:16:21;;;;;;;12.40;6.78;;;;;;;7.31;53.56;102021.72;4930235;29;20126;-49
2023/04/06 07:18:46;;;;;;;16.55;6.53;;;;;;;7.36;53.53;102020.72;4926188;29;20098;-48
2023/04/06 07:21:12;;;;;;;11.90;6.10;;;;;;;7.40;53.26;102028.50;4930117;29;20436;-49
2023/04/06 07:23:37;;;;;;;14.32;6.40;;;;;;;7.44;53.42;102021.41;4931327;29;20448;-51
2023/04/06 07:26:03;;;;;;;13.85;6.30;;;;;;;7.45;53.09;102026.59;4934047;29;20031;-49
2023/04/06 07:28:28;;;;;;;13.25;6.32;;;;;;;7.48;53.03;102025.69;4932494;29;20555;-49
2023/04/06 07:30:54;;;;;;;7.80;4.88;;;;;;;7.52;52.74;102022.06;4926506;29;20032;-50
2023/04/06 07:33:20;;;;;;;11.57;5.38;;;;;;;7.57;52.55;102017.59;4929848;29;20068;-50
2023/04/06 07:35:45;;;;;;;10.43;5.15;;;;;;;7.61;52.38;102018.38;4928041;29;20070;-49
2023/04/06 07:38:11;;;;;;;13.02;5.15;;;;;;;7.67;52.33;102018.22;4932790;29;20087;-49
2023/04/06 07:40:37;;;;;;;9.63;5.72;;;;;;;7.72;52.47;102026.81;4930500;29;20032;-49
2023/04/06 07:43:02;;;;;;;11.15;5.65;;;;;;;7.77;52.43;102027.56;4932020;29;20056;-49
2023/04/06 07:45:28;;;;;;;8.70;4.60;;;;;;;7.82;52.14;102024.84;4931371;29;20038;-49
2023/04/06 07:47:53;;;;;;;10.00;6.05;;;;;;;7.88;52.35;102027.31;4922755;29;20037;-49
2023/04/06 07:50:19;;;;;;;8.63;4.22;;;;;;;7.90;51.85;102028.13;4927276;29;20046;-48
2023/04/06 07:52:44;;;;;;;13.27;5.18;;;;;;;7.92;51.91;102025.47;4929820;29;20036;-49
2023/04/06 07:55:10;;;;;;;15.65;5.43;;;;;;;7.93;52.11;102033.31;4919290;29;20040;-49
2023/04/06 07:57:35;;;;;;;10.90;4.82;;;;;;;7.99;51.81;102031.41;4920584;29;20505;-48
2023/04/06 08:00:01;;;;;;;11.38;5.53;;;;;;;8.01;51.93;102032.22;4922476;29;20029;-49
2023/04/06 08:02:26;;;;;;;7.65;3.53;;;;;;;8.05;51.81;102031.25;4925737;29;20046;-48
2023/04/06 08:04:52;;;;;;;8.10;4.43;;;;;;;8.09;51.45;102031.13;4929779;29;20492;-49
2023/04/06 08:07:17;;;;;;;9.05;4.53;;;;;;;8.11;51.39;102024.97;4930780;29;20054;-49
2023/04/06 08:09:43;;;;;;;9.32;4.57;;;;;;;8.12;51.44;102031.94;4912731;29;20078;-49
2023/04/06 08:12:08;;;;;;;10.85;5.20;;;;;;;8.15;51.32;102032.72;4932675;29;20437;-49
2023/04/06 08:14:33;;;;;;;10.85;4.40;;;;;;;8.17;51.05;102030.91;4932164;29;20035;-50
2023/04/06 08:16:59;;;;;;;7.70;4.20;;;;;;;8.22;51.09;102031.66;4928219;29;20361;-49
2023/04/06 08:19:25;;;;;;;9.30;4.40;;;;;;;8.26;50.68;102031.56;4917973;29;20496;-49
2023/04/06 08:21:51;;;;;;;10.20;4.25;;;;;;;8.31;50.71;102029.69;4919213;29;20035;-48
2023/04/06 08:24:16;;;;;;;15.45;6.85;;;;;;;8.35;50.53;102031.31;4928917;29;20210;-49
2023/04/06 08:26:42;;;;;;;13.48;6.43;;;;;;;8.38;50.69;102036.50;4905423;29;20028;-48
2023/04/06 08:29:07;;;;;;;9.23;4.53;;;;;;;8.42;50.34;102030.22;4930037;29;20036;-49
2023/04/06 08:31:36;;;;;;;8.10;4.45;;;;;;;8.47;50.04;102035.38;4920443;29;20046;-49
2023/04/06 08:34:04;;;;;;;11.80;4.95;;;;;;;8.49;49.98;102033.56;4908354;29;20031;-49
2023/04/06 08:36:29;;;;;;;7.70;4.30;;;;;;;8.52;50.04;102031.75;4923363;29;20031;-49
2023/04/06 08:38:55;;;;;;;10.70;4.40;;;;;;;8.57;49.91;102031.59;4924874;29;20027;-49
2023/04/06 08:41:20;;;;;;;7.55;4.30;;;;;;;8.59;49.79;102031.56;4923955;29;20110;-50
2023/04/06 08:43:57;;;;;;;6.53;3.42;;;;;;;8.62;49.35;102027.06;4919301;29;20114;-50
2023/04/06 08:46:29;;;;;;;9.13;4.47;;;;;;;8.64;49.60;102033.13;4926128;29;20488;-50
2023/04/06 08:48:56;;;;;;;9.48;4.45;;;;;;;8.65;49.36;102037.47;4929580;29;20032;-49
2023/04/06 08:51:26;;;;;;;10.18;4.47;;;;;;;8.67;49.23;102026.97;4924189;29;20047;-48
2023/04/06 08:53:54;;;;;;;11.13;4.75;;;;;;;8.68;49.34;102037.41;4925738;29;20039;-49
2023/04/06 08:56:21;;;;;;;6.28;3.90;;;;;;;8.71;49.03;102031.19;4928049;29;20039;-50
2023/04/06 08:58:50;;;;;;;7.50;4.47;;;;;;;8.78;49.00;102022.25;4929366;29;20043;-49
2023/04/06 09:01:17;;;;;;;6.85;4.18;;;;;;;8.80;48.96;102025.69;4931095;29;20054;-50
2023/04/06 09:03:44;;;;;;;7.15;3.75;;;;;;;8.83;48.91;102025.59;4923182;29;20040;-49
2023/04/06 09:06:11;;;;;;;8.32;4.18;;;;;;;8.88;48.66;102016.72;4920698;29;20384;-49
2023/04/06 09:08:40;;;;;;;7.90;4.20;;;;;;;8.91;48.73;102021.88;4922396;29;20091;-49
2023/04/06 09:11:05;;;;;;;7.35;4.07;;;;;;;8.94;48.30;102019.16;4913807;29;20025;-49
2023/04/06 09:13:31;;;;;;;12.57;4.50;;;;;;;8.96;48.20;102019.97;4900951;29;20057;-49
2023/04/06 09:16:02;;;;;;;4.85;2.50;;;;;;;8.95;47.49;102013.84;4931054;29;20024;-49
2023/04/06 09:18:32;;;;;;;9.70;3.67;;;;;;;8.99;47.61;102017.28;4926268;29;20038;-49
2023/04/06 09:21:02;;;;;;;9.30;3.90;;;;;;;8.98;47.66;102011.13;4928101;29;20123;-49
2023/04/06 09:23:28;;;;;;;9.13;3.67;;;;;;;9.02;47.79;102014.53;4932842;29;20039;-49
2023/04/06 09:26:17;;;;;;;5.85;3.05;;;;;;;9.06;46.85;102020.56;4924595;29;20024;-49
2023/04/06 09:28:53;;;;;;;6.18;3.83;;;;;;;9.08;47.39;102010.84;4933222;29;20031;-49
2023/04/06 09:31:26;;;;;;;13.52;3.50;;;;;;;9.17;46.82;102017.56;4926520;29;20086;-49
2023/04/06 09:33:53;;;;;;;6.70;3.50;;;;;;;9.23;46.87;102018.25;4933924;29;20103;-49
2023/04/06 09:36:19;;;;;;;7.50;3.65;;;;;;;9.29;46.99;102017.22;4930216;29;20500;-49
2023/04/06 09:38:56;;;;;;;15.40;4.65;;;;;;;9.38;46.54;102016.03;4934637;29;20024;-49
2023/04/06 09:41:30;;;;;;;8.82;4.05;;;;;;;9.43;46.41;102015.00;4926815;29;20031;-48
2023/04/06 09:44:05;;;;;;;7.57;3.85;;;;;;;9.53;46.06;102019.94;4932839;29;20488;-50
2023/04/06 09:46:36;;;;;;;8.25;3.90;;;;;;;9.60;46.60;102013.59;4932529;29;20043;-49
2023/04/06 09:49:03;;;;;;;8.68;4.50;;;;;;;9.64;46.49;102012.56;4929781;29;20028;-49
2023/04/06 09:51:54;;;;;;;6.32;4.10;;;;;;;9.65;45.85;102011.66;4933449;29;20412;-49
2023/04/06 09:54:22;;;;;;;6.55;3.60;;;;;;;9.69;46.25;102015.91;4932010;29;20054;-49
2023/04/06 09:56:55;;;;;;;9.32;3.83;;;;;;;9.72;45.81;102010.53;4931913;29;20036;-49
2023/04/06 09:59:43;;;;;;;5.72;3.00;;;;;;;9.77;45.81;102013.84;4934408;29;20070;-50
2023/04/06 10:02:30;;;;;;;8.73;3.95;;;;;;;9.86;45.75;102011.84;4927922;29;20130;-49
2023/04/06 10:05:22;;;;;;;10.45;4.68;;;;;;;9.94;45.59;102012.41;4934402;29;20020;-49
2023/04/06 10:07:51;;;;;;;5.18;3.50;;;;;;;9.98;45.73;102006.16;4934800;29;20038;-49
2023/04/06 10:10:17;;;;;;;6.95;3.55;;;;;;;10.02;45.66;102006.91;4935376;29;20441;-49
2023/04/06 10:12:44;;;;;;;8.40;3.38;;;;;;;10.10;45.58;102004.00;4933370;29;20035;-49
2023/04/06 10:15:10;;;;;;;10.77;3.60;;;;;;;10.13;45.12;102003.88;4934052;29;20043;-49
2023/04/06 10:17:36;;;;;;;6.72;3.10;;;;;;;10.14;45.13;102001.19;4934935;29;20031;-50
2023/04/06 10:20:06;;;;;;;6.60;3.00;;;;;;;10.14;45.25;101993.31;4929132;29;20145;-51
2023/04/06 10:22:56;;;;;;;6.72;4.25;;;;;;;10.17;44.51;102001.09;4925056;29;20111;-49
2023/04/06 10:25:31;;;;;;;7.32;3.80;;;;;;;10.25;44.76;101992.91;4930691;29;20071;-48
2023/04/06 10:28:06;;;;;;;5.78;3.15;;;;;;;10.36;44.50;101993.38;4930981;29;20489;-50
2023/04/06 10:30:32;;;;;;;11.23;3.47;;;;;;;10.40;44.73;101995.94;4931775;29;20042;-50
2023/04/06 10:32:58;;;;;;;6.20;3.42;;;;;;;10.45;44.63;101996.63;4926981;29;20059;-49
2023/04/06 10:35:24;;;;;;;6.35;4.30;;;;;;;10.47;44.59;101992.19;4924660;29;20133;-49
2023/04/06 10:38:02;;;;;;;8.80;4.57;;;;;;;10.52;44.08;101993.72;4930237;29;20028;-49
2023/04/06 10:40:28;;;;;;;10.68;3.72;;;;;;;10.57;44.26;101990.91;4927348;29;20039;-49
2023/04/06 10:42:55;;;;;;;7.82;3.25;;;;;;;10.62;44.14;101996.00;4931927;29;20039;-50
2023/04/06 10:45:25;;;;;;;7.63;3.65;;;;;;;10.62;43.85;101994.22;4925089;29;20032;-49
2023/04/06 10:47:53;;;;;;;5.60;2.72;;;;;;;10.67;43.84;102000.16;4928800;29;20038;-49
2023/04/06 10:50:18;;;;;;;6.20;3.10;;;;;;;10.77;43.61;101994.56;4926897;29;20043;-49
2023/04/06 10:52:46;;;;;;;8.43;3.40;;;;;;;10.77;43.57;101994.56;4931363;29;20031;-49
2023/04/06 10:55:14;;;;;;;5.93;2.83;;;;;;;10.79;43.54;101987.47;4931249;29;20023;-49
2023/04/06 10:57:40;;;;;;;6.20;3.13;;;;;;;10.85;43.22;101986.38;4933857;29;20034;-49
2023/04/06 11:00:07;;;;;;;10.60;3.90;;;;;;;10.82;43.04;101987.31;4934068;29;20032;-50
2023/04/06 11:02:35;;;;;;;7.18;3.55;;;;;;;10.76;43.08;101985.78;4936688;29;20027;-50
2023/04/06 11:05:01;;;;;;;7.15;3.38;;;;;;;10.77;43.13;101989.28;4929947;29;20475;-49
2023/04/06 11:07:28;;;;;;;9.13;3.42;;;;;;;10.81;42.97;101985.63;4931922;29;20088;-49
2023/04/06 11:09:53;;;;;;;5.88;2.80;;;;;;;10.79;43.01;101984.84;4931735;29;20054;-49
2023/04/06 11:12:27;;;;;;;9.00;3.78;;;;;;;10.80;42.56;101981.28;4929588;29;20051;-50
2023/04/06 11:15:05;;;;;;;9.23;4.32;;;;;;;10.83;42.68;101978.50;4931086;29;20102;-49
2023/04/06 11:17:36;;;;;;;8.25;3.97;;;;;;;10.88;42.66;101981.84;4936030;29;20035;-49
2023/04/06 11:20:04;;;;;;;6.47;3.22;;;;;;;10.93;42.69;101973.75;4914641;29;20047;-49
2023/04/06 11:22:31;;;;;;;6.28;3.08;;;;;;;10.95;42.67;101975.41;4921510;29;20126;-49
2023/04/06 11:25:06;;;;;;;6.25;3.13;;;;;;;10.97;42.13;101976.19;4932964;29;20038;-49